Time;durP1;ratioP1;P1;durP2;ratioP2;P2;SDS_P1;SDS_P2;PMS_P1;PMS_P2;Temp;Humidity;BMP_temperature;BMP_pressure;BME280_temperature;BME280_humidity;BME280_pressure;Samples;Min_cycle;Max_cycle;Signal;HPM_P1;HPM_P2
2022/08/27 00:02:18;;;;;;;0.30;0.30;;;20.30;99.90;;;;;;5036486;28;20017;-75
2022/08/27 00:04:44;;;;;;;0.00;0.00;;;20.20;99.90;;;;;;5020183;28;20115;-75
2022/08/27 00:07:11;;;;;;;0.95;0.80;;;20.00;99.90;;;;;;5054446;28;20448;-76
2022/08/27 00:09:38;;;;;;;1.83;1.02;;;20.00;99.90;;;;;;5036493;28;20028;-76
2022/08/27 00:12:05;;;;;;;0.00;0.00;;;20.10;99.90;;;;;;5054246;28;20035;-76
2022/08/27 00:14:31;;;;;;;0.60;0.60;;;20.20;99.90;;;;;;5036182;28;20116;-76
2022/08/27 00:16:57;;;;;;;1.77;0.98;;;20.30;99.90;;;;;;5054067;28;20033;-76
2022/08/27 00:19:23;;;;;;;0.10;0.10;;;20.20;99.90;;;;;;5054346;28;20499;-75
2022/08/27 00:21:49;;;;;;;1.55;0.73;;;20.10;99.90;;;;;;5054151;28;20369;-76
2022/08/27 00:24:15;;;;;;;0.25;0.25;;;20.00;99.90;;;;;;5054167;28;20108;-76
2022/08/27 00:26:41;;;;;;;1.13;1.10;;;20.10;99.90;;;;;;5053623;28;20033;-76
2022/08/27 00:29:07;;;;;;;1.23;0.75;;;20.10;99.90;;;;;;5054090;28;20148;-75
2022/08/27 00:31:34;;;;;;;0.30;0.30;;;19.90;99.90;;;;;;5035970;28;20032;-76
2022/08/27 00:34:00;;;;;;;5.88;3.78;;;19.80;99.90;;;;;;5054042;28;20021;-76
2022/08/27 00:36:26;;;;;;;0.00;0.00;;;19.90;99.90;;;;;;5053594;28;20033;-80
2022/08/27 00:38:53;;;;;;;0.10;0.10;;;20.10;99.90;;;;;;5035828;28;20107;-76
2022/08/27 00:41:19;;;;;;;2.20;0.68;;;20.10;99.90;;;;;;5053490;28;20388;-76
2022/08/27 00:43:50;;;;;;;0.17;0.17;;;20.10;99.90;;;;;;5035989;28;20516;-75
2022/08/27 00:46:20;;;;;;;0.35;0.35;;;20.00;99.90;;;;;;5035778;28;20017;-76
2022/08/27 00:48:47;;;;;;;0.20;0.20;;;20.00;99.90;;;;;;5035873;28;20473;-75
2022/08/27 00:51:13;;;;;;;0.15;0.15;;;19.90;99.90;;;;;;5035606;28;20052;-75
2022/08/27 00:53:40;;;;;;;1.08;1.08;;;19.80;99.90;;;;;;5053944;28;20437;-76
2022/08/27 00:56:11;;;;;;;0.10;0.10;;;20.00;99.90;;;;;;5053364;28;20063;-76
2022/08/27 00:58:40;;;;;;;0.10;0.10;;;20.10;99.90;;;;;;5035684;28;20079;-76
2022/08/27 01:01:12;;;;;;;0.32;0.32;;;20.10;99.90;;;;;;5053351;28;20032;-76
2022/08/27 01:03:39;;;;;;;0.20;0.20;;;20.20;99.90;;;;;;5053586;28;20051;-76
2022/08/27 01:06:08;;;;;;;1.35;1.13;;;20.00;99.90;;;;;;5053158;28;20039;-76
2022/08/27 01:08:38;;;;;;;0.80;0.40;;;19.70;99.90;;;;;;5035430;28;20029;-76
2022/08/27 01:11:04;;;;;;;0.10;0.10;;;19.50;99.90;;;;;;5053263;28;20025;-76
2022/08/27 01:13:32;;;;;;;0.00;0.00;;;19.40;99.90;;;;;;5035444;28;20540;-76
2022/08/27 01:15:59;;;;;;;0.77;0.75;;;19.50;99.90;;;;;;5053087;28;20028;-76
2022/08/27 01:18:27;;;;;;;0.08;0.08;;;19.60;99.90;;;;;;5035194;28;20083;-75
2022/08/27 01:20:59;;;;;;;0.32;0.20;;;19.50;99.90;;;;;;5053136;28;20477;-76
2022/08/27 01:23:53;;;;;;;1.25;0.55;;;19.60;99.90;;;;;;5053073;28;20032;-76
2022/08/27 01:26:20;;;;;;;0.40;0.40;;;19.70;99.90;;;;;;5034989;28;20074;-76
2022/08/27 01:28:48;;;;;;;0.20;0.20;;;19.50;99.90;;;;;;5052931;28;20577;-76
2022/08/27 01:31:13;;;;;;;4.00;1.38;;;19.40;99.90;;;;;;5052494;28;20108;-76
2022/08/27 01:33:39;;;;;;;0.00;0.00;;;19.50;99.90;;;;;;5052678;28;20488;-75
2022/08/27 01:36:06;;;;;;;0.45;0.32;;;19.40;99.90;;;;;;5051370;28;20048;-76
2022/08/27 01:38:33;;;;;;;0.20;0.20;;;19.50;99.90;;;;;;5052108;28;20021;-76
2022/08/27 01:40:59;;;;;;;1.30;0.43;;;19.40;99.90;;;;;;5018264;28;20025;-76
2022/08/27 01:43:26;;;;;;;0.17;0.17;;;19.30;99.90;;;;;;5034670;28;20412;-76
2022/08/27 01:45:51;;;;;;;0.10;0.10;;;19.20;99.90;;;;;;5034738;28;20100;-75
2022/08/27 01:48:20;;;;;;;0.10;0.10;;;19.20;99.90;;;;;;5034471;28;20060;-76
2022/08/27 01:50:47;;;;;;;0.28;0.28;;;19.20;99.90;;;;;;5035092;28;20123;-76
2022/08/27 01:53:30;;;;;;;0.13;0.13;;;19.30;99.90;;;;;;5034436;28;20070;-76
2022/08/27 01:55:57;;;;;;;0.10;0.10;;;19.20;99.90;;;;;;5034480;28;20025;-76
2022/08/27 01:58:27;;;;;;;0.85;0.60;;;19.10;99.90;;;;;;5052358;28;20159;-76
2022/08/27 02:00:58;;;;;;;0.15;0.15;;;19.10;99.90;;;;;;5034769;28;20028;-76
2022/08/27 02:03:24;;;;;;;0.00;0.00;;;19.10;99.90;;;;;;5034661;28;20031;-75
2022/08/27 02:05:50;;;;;;;0.55;0.20;;;19.10;99.90;;;;;;5050976;28;20120;-76
2022/08/27 02:08:17;;;;;;;0.20;0.20;;;19.10;99.90;;;;;;5034559;28;20055;-76
2022/08/27 02:10:45;;;;;;;0.10;0.10;;;19.10;99.90;;;;;;5052569;28;20415;-76
2022/08/27 02:13:12;;;;;;;0.20;0.20;;;19.20;99.90;;;;;;5052070;28;20472;-76
2022/08/27 02:15:40;;;;;;;0.13;0.13;;;19.10;99.90;;;;;;5034130;28;20480;-76
2022/08/27 02:18:08;;;;;;;0.10;0.10;;;19.10;99.90;;;;;;5052092;28;20021;-75
2022/08/27 02:20:35;;;;;;;0.20;0.20;;;19.10;99.90;;;;;;5034164;28;20432;-76
2022/08/27 02:23:01;;;;;;;0.20;0.20;;;19.10;99.90;;;;;;5034124;28;20017;-76
2022/08/27 02:25:27;;;;;;;0.10;0.10;;;19.20;99.90;;;;;;5051909;28;20024;-76
2022/08/27 02:27:55;;;;;;;0.50;0.50;;;19.30;99.90;;;;;;5052150;28;20100;-76
2022/08/27 02:30:23;;;;;;;0.10;0.10;;;19.30;99.90;;;;;;5034169;28;20091;-76
2022/08/27 02:32:51;;;;;;;0.32;0.32;;;19.30;99.90;;;;;;5051848;28;20033;-76
2022/08/27 02:35:19;;;;;;;0.10;0.10;;;19.50;99.90;;;;;;5051611;28;20117;-76
2022/08/27 02:37:45;;;;;;;0.63;0.43;;;19.50;99.90;;;;;;5034061;28;20480;-76
2022/08/27 02:40:16;;;;;;;1.45;1.17;;;19.30;99.90;;;;;;5051637;28;20021;-76
2022/08/27 02:42:45;;;;;;;0.10;0.10;;;19.40;99.90;;;;;;5033823;28;20051;-76
2022/08/27 02:45:12;;;;;;;0.15;0.15;;;19.30;99.90;;;;;;5051467;28;20017;-76
2022/08/27 02:47:38;;;;;;;1.17;0.57;;;19.20;99.90;;;;;;5051698;28;20132;-76
2022/08/27 02:50:05;;;;;;;0.10;0.10;;;18.90;99.90;;;;;;5035805;28;20021;-76
2022/08/27 02:52:31;;;;;;;0.10;0.10;;;18.90;99.90;;;;;;5055889;28;20029;-76
2022/08/27 02:54:57;;;;;;;1.48;0.17;;;19.00;99.90;;;;;;5021505;28;20029;-75
2022/08/27 02:57:23;;;;;;;0.10;0.10;;;19.00;99.90;;;;;;5055646;28;20025;-76
2022/08/27 02:59:50;;;;;;;0.10;0.10;;;19.00;99.90;;;;;;5055839;28;20025;-76
2022/08/27 03:02:17;;;;;;;0.10;0.10;;;19.20;99.90;;;;;;5055842;28;20021;-75
2022/08/27 03:04:43;;;;;;;0.20;0.20;;;19.10;99.90;;;;;;5037966;28;20029;-76
2022/08/27 03:07:10;;;;;;;0.52;0.30;;;19.10;99.90;;;;;;5055597;28;20468;-76
2022/08/27 03:09:35;;;;;;;0.30;0.20;;;19.00;99.90;;;;;;5055637;28;20029;-76
2022/08/27 03:12:02;;;;;;;0.52;0.20;;;18.90;99.90;;;;;;5037465;28;20047;-76
2022/08/27 03:14:27;;;;;;;3.55;0.38;;;18.80;99.90;;;;;;5055423;28;20033;-76
2022/08/27 03:16:54;;;;;;;0.10;0.10;;;18.90;99.90;;;;;;5055222;28;20036;-75
2022/08/27 03:19:20;;;;;;;0.00;0.00;;;19.10;99.90;;;;;;5055477;28;20017;-76
2022/08/27 03:21:47;;;;;;;0.10;0.10;;;18.90;99.90;;;;;;5037678;28;20381;-76
2022/08/27 03:24:13;;;;;;;0.20;0.20;;;19.00;99.90;;;;;;5037659;28;20176;-76
2022/08/27 03:26:39;;;;;;;1.33;0.63;;;18.90;99.90;;;;;;5037122;28;20059;-75
2022/08/27 03:29:06;;;;;;;0.10;0.10;;;18.80;99.90;;;;;;5055072;28;20029;-76
2022/08/27 03:31:32;;;;;;;0.20;0.20;;;18.70;99.90;;;;;;5037136;28;20029;-76
2022/08/27 03:34:01;;;;;;;0.10;0.10;;;18.70;99.90;;;;;;5055507;28;20461;-76
2022/08/27 03:36:29;;;;;;;0.43;0.43;;;18.70;99.90;;;;;;5054813;28;20476;-75
2022/08/27 03:38:56;;;;;;;0.90;0.90;;;18.50;99.90;;;;;;5054934;28;20031;-75
2022/08/27 03:41:23;;;;;;;0.10;0.10;;;18.40;99.90;;;;;;5054847;28;20029;-75
2022/08/27 03:43:51;;;;;;;0.20;0.20;;;18.60;99.90;;;;;;5037087;28;20472;-75
2022/08/27 03:46:19;;;;;;;0.10;0.10;;;18.60;99.90;;;;;;5054902;28;20028;-76
2022/08/27 03:48:46;;;;;;;0.10;0.10;;;18.80;99.90;;;;;;5020498;28;20025;-76
2022/08/27 03:51:13;;;;;;;0.10;0.10;;;19.20;99.90;;;;;;5054646;28;20373;-76
2022/08/27 03:53:41;;;;;;;0.00;0.00;;;19.50;99.90;;;;;;5036939;28;20033;-76
2022/08/27 03:56:07;;;;;;;0.10;0.10;;;19.70;99.90;;;;;;5020347;28;20048;-76
2022/08/27 03:58:35;;;;;;;0.10;0.10;;;19.70;99.90;;;;;;5036957;28;20029;-76
2022/08/27 04:01:01;;;;;;;0.03;0.03;;;19.70;99.90;;;;;;5054164;28;20017;-76
2022/08/27 04:03:27;;;;;;;0.10;0.10;;;19.90;99.90;;;;;;5036564;28;20020;-76
2022/08/27 04:05:54;;;;;;;0.10;0.10;;;19.90;99.90;;;;;;5059753;23;20041;-77
2022/08/27 04:08:21;;;;;;;0.00;0.00;;;19.90;99.90;;;;;;5064378;28;20062;-78
2022/08/27 04:10:48;;;;;;;0.10;0.10;;;19.70;99.90;;;;;;5048932;28;20049;-79
2022/08/27 04:13:16;;;;;;;0.10;0.10;;;19.40;99.90;;;;;;5065231;28;20025;-78
2022/08/27 04:15:44;;;;;;;0.10;0.10;;;19.30;99.90;;;;;;5083014;28;20024;-79
2022/08/27 04:18:11;;;;;;;0.10;0.10;;;19.30;99.90;;;;;;5064981;28;20036;-77
2022/08/27 04:20:37;;;;;;;5.93;0.73;;;19.20;99.90;;;;;;5064976;28;20071;-77
2022/08/27 04:23:04;;;;;;;0.10;0.10;;;19.00;99.90;;;;;;5064595;28;20048;-77
2022/08/27 04:25:30;;;;;;;0.10;0.10;;;18.70;99.90;;;;;;5066597;28;20020;-78
2022/08/27 04:27:56;;;;;;;0.05;0.05;;;18.60;99.90;;;;;;5066725;28;20032;-78
2022/08/27 04:30:22;;;;;;;0.08;0.08;;;18.90;99.90;;;;;;5067028;28;20034;-78
2022/08/27 04:32:49;;;;;;;0.10;0.10;;;19.10;99.90;;;;;;5050171;28;20456;-78
2022/08/27 04:35:15;;;;;;;0.82;0.82;;;19.40;99.90;;;;;;5066862;28;20044;-78
2022/08/27 04:37:41;;;;;;;0.10;0.10;;;19.50;99.90;;;;;;5049400;28;20036;-78
2022/08/27 04:40:07;;;;;;;0.10;0.10;;;19.60;99.90;;;;;;5066638;28;20028;-78
2022/08/27 04:42:33;;;;;;;0.10;0.10;;;19.50;99.90;;;;;;5083027;28;20016;-79
2022/08/27 04:44:59;;;;;;;1.88;0.20;;;19.70;99.90;;;;;;5064142;28;20020;-80
2022/08/27 04:47:24;;;;;;;0.10;0.10;;;19.60;99.90;;;;;;5048007;28;20092;-80
2022/08/27 04:49:50;;;;;;;0.30;0.30;;;19.40;99.90;;;;;;5064400;28;20036;-79
2022/08/27 04:52:16;;;;;;;0.10;0.10;;;19.30;99.90;;;;;;5046697;28;20042;-79
2022/08/27 04:54:42;;;;;;;0.05;0.05;;;19.20;99.90;;;;;;5081927;28;20021;-78
2022/08/27 04:57:08;;;;;;;0.65;0.65;;;19.20;99.90;;;;;;5083454;28;20025;-78
2022/08/27 04:59:34;;;;;;;0.32;0.32;;;19.30;99.90;;;;;;5048440;28;20046;-77
2022/08/27 05:02:02;;;;;;;0.55;0.55;;;19.30;99.90;;;;;;5081693;28;20055;-78
2022/08/27 05:04:29;;;;;;;0.35;0.35;;;19.30;99.90;;;;;;5063745;28;20020;-79
2022/08/27 05:06:56;;;;;;;0.35;0.20;;;19.50;99.90;;;;;;5046829;28;20032;-78
2022/08/27 05:09:21;;;;;;;0.00;0.00;;;19.40;99.90;;;;;;5065241;28;20047;-78
2022/08/27 05:11:47;;;;;;;0.30;0.30;;;19.40;99.90;;;;;;5064161;28;20426;-78
2022/08/27 05:14:14;;;;;;;0.00;0.00;;;19.40;99.90;;;;;;5045581;28;20395;-77
2022/08/27 05:16:41;;;;;;;0.10;0.10;;;19.40;99.90;;;;;;5064129;28;20029;-78
2022/08/27 05:19:09;;;;;;;0.55;0.55;;;19.50;99.90;;;;;;5042075;28;20115;-78
2022/08/27 05:21:38;;;;;;;0.13;0.13;;;19.60;99.90;;;;;;5045955;28;20028;-78
2022/08/27 05:24:06;;;;;;;0.47;0.47;;;19.40;99.90;;;;;;5060295;28;20540;-78
2022/08/27 05:26:34;;;;;;;0.22;0.22;;;19.40;99.90;;;;;;5068799;28;20024;-78
2022/08/27 05:29:00;;;;;;;0.00;0.00;;;19.30;99.90;;;;;;5046298;28;20028;-78
2022/08/27 05:31:27;;;;;;;0.10;0.10;;;19.40;99.90;;;;;;5062074;28;20141;-79
2022/08/27 05:33:55;;;;;;;0.13;0.13;;;19.40;99.90;;;;;;5061919;28;20372;-79
2022/08/27 05:36:25;;;;;;;0.20;0.20;;;19.50;99.90;;;;;;5074858;23;20394;-78
2022/08/27 05:38:52;;;;;;;0.55;0.55;;;19.60;99.90;;;;;;5035961;28;20025;-78
2022/08/27 05:41:20;;;;;;;0.52;0.45;;;19.60;99.90;;;;;;5052773;28;20021;-76
2022/08/27 05:43:46;;;;;;;0.00;0.00;;;19.70;99.90;;;;;;5035486;28;20024;-76
2022/08/27 05:46:15;;;;;;;0.00;0.00;;;19.60;99.90;;;;;;5035137;28;20025;-76
2022/08/27 05:48:42;;;;;;;0.32;0.22;;;19.70;99.90;;;;;;5052755;28;20056;-78
2022/08/27 05:51:13;;;;;;;0.10;0.10;;;19.40;99.90;;;;;;5034899;28;20021;-78
2022/08/27 05:53:39;;;;;;;0.00;0.00;;;19.50;99.90;;;;;;5052696;28;20032;-78
2022/08/27 05:56:12;;;;;;;0.30;0.28;;;19.40;99.90;;;;;;5034722;28;20027;-77
2022/08/27 06:01:23;;;;;;;0.10;0.10;;;19.60;99.90;;;;;;5052533;28;20021;-77
2022/08/27 06:03:51;;;;;;;0.88;0.40;;;19.60;99.90;;;;;;5034686;28;20472;-77
2022/08/27 06:06:18;;;;;;;0.00;0.00;;;19.70;99.90;;;;;;5035187;28;20028;-78
2022/08/27 06:08:43;;;;;;;0.05;0.05;;;19.70;99.90;;;;;;5040741;28;20028;-77
2022/08/27 06:11:10;;;;;;;0.00;0.00;;;19.80;99.90;;;;;;5092610;28;20074;-76
2022/08/27 06:13:36;;;;;;;0.10;0.10;;;19.70;99.90;;;;;;5080162;28;20031;-77
2022/08/27 06:16:15;;;;;;;0.10;0.10;;;19.70;99.90;;;;;;5072604;28;20029;-76
2022/08/27 06:18:43;;;;;;;0.10;0.10;;;19.60;99.90;;;;;;5054412;28;20020;-76
2022/08/27 06:21:09;;;;;;;0.20;0.20;;;19.60;99.90;;;;;;5072134;28;20020;-76
2022/08/27 06:23:36;;;;;;;0.10;0.10;;;19.60;99.90;;;;;;5054211;28;20490;-76
2022/08/27 06:26:06;;;;;;;0.10;0.10;;;19.50;99.90;;;;;;5053791;28;20021;-77
2022/08/27 06:28:33;;;;;;;0.30;0.30;;;19.40;99.90;;;;;;5054164;28;20047;-77
2022/08/27 06:31:06;;;;;;;0.03;0.03;;;19.40;99.90;;;;;;5072435;28;20021;-76
2022/08/27 06:33:33;;;;;;;0.22;0.22;;;19.60;99.90;;;;;;5054220;28;20035;-76
2022/08/27 06:36:06;;;;;;;0.10;0.10;;;19.70;99.90;;;;;;5054157;28;20033;-77
2022/08/27 06:38:33;;;;;;;0.20;0.20;;;19.60;99.90;;;;;;5036414;28;20050;-78
2022/08/27 06:40:59;;;;;;;0.00;0.00;;;19.50;99.90;;;;;;5071178;28;20016;-76
2022/08/27 06:43:25;;;;;;;0.03;0.03;;;19.70;99.90;;;;;;5053689;28;20031;-77
2022/08/27 06:45:52;;;;;;;0.15;0.15;;;19.90;99.90;;;;;;5053394;28;20017;-78
2022/08/27 06:48:18;;;;;;;0.30;0.30;;;20.10;99.90;;;;;;5071826;28;20146;-76
2022/08/27 06:50:45;;;;;;;0.63;0.52;;;20.10;99.90;;;;;;5053151;28;20024;-78
2022/08/27 06:53:11;;;;;;;0.05;0.05;;;20.00;99.90;;;;;;5054099;28;20032;-78
2022/08/27 06:55:45;;;;;;;0.00;0.00;;;19.90;99.90;;;;;;5054818;28;20068;-77
2022/08/27 06:58:15;;;;;;;0.10;0.10;;;19.90;99.90;;;;;;5038241;28;20086;-76
2022/08/27 07:00:42;;;;;;;0.08;0.08;;;19.90;99.90;;;;;;5054103;28;20108;-77
2022/08/27 07:03:09;;;;;;;0.00;0.00;;;19.80;99.90;;;;;;5072169;28;20017;-77
2022/08/27 07:05:37;;;;;;;13.00;3.85;;;19.80;99.90;;;;;;5073279;28;20048;-76
2022/08/27 07:08:04;;;;;;;0.15;0.15;;;20.00;99.90;;;;;;5072062;28;20166;-78
2022/08/27 07:10:30;;;;;;;1.95;0.77;;;20.10;99.90;;;;;;5055331;28;20027;-77
2022/08/27 07:12:57;;;;;;;0.10;0.10;;;19.90;99.90;;;;;;5072620;28;20025;-77
2022/08/27 07:15:23;;;;;;;0.10;0.10;;;19.80;99.90;;;;;;5073741;28;20032;-78
2022/08/27 07:17:49;;;;;;;1.38;1.02;;;19.90;99.90;;;;;;5054097;28;20027;-76
2022/08/27 07:20:16;;;;;;;0.35;0.35;;;20.10;99.90;;;;;;5036979;28;20025;-77
2022/08/27 07:22:44;;;;;;;0.00;0.00;;;20.00;99.90;;;;;;5071885;28;20025;-79
2022/08/27 07:25:13;;;;;;;0.30;0.30;;;20.00;99.90;;;;;;5054154;28;20017;-79
2022/08/27 07:27:39;;;;;;;0.10;0.10;;;20.10;99.90;;;;;;5053897;28;20028;-79
2022/08/27 07:30:09;;;;;;;0.35;0.35;;;19.90;99.90;;;;;;5039421;28;20079;-77
2022/08/27 07:32:35;;;;;;;0.10;0.10;;;20.00;99.90;;;;;;5055368;28;20052;-77
2022/08/27 07:35:01;;;;;;;0.10;0.10;;;20.00;99.90;;;;;;5073045;28;20368;-77
2022/08/27 07:37:27;;;;;;;4.03;3.47;;;20.00;99.90;;;;;;5057343;28;20039;-78
2022/08/27 07:39:53;;;;;;;0.00;0.00;;;19.90;99.90;;;;;;5043301;28;20017;-78
2022/08/27 07:45:03;;;;;;;3.50;1.58;;;19.80;99.90;;;;;;5061752;28;20028;-79
2022/08/27 07:47:30;;;;;;;0.00;0.00;;;19.60;99.90;;;;;;5079774;28;20024;-78
2022/08/27 07:49:57;;;;;;;2.28;1.48;;;19.60;99.90;;;;;;5060458;28;20025;-78
2022/08/27 07:52:23;;;;;;;0.63;0.63;;;19.80;99.90;;;;;;5077277;28;20522;-77
2022/08/27 07:54:50;;;;;;;0.10;0.10;;;19.80;99.90;;;;;;5076380;28;20475;-77
2022/08/27 07:57:16;;;;;;;0.32;0.32;;;19.80;99.90;;;;;;5042660;28;20106;-77
2022/08/27 07:59:42;;;;;;;2.83;1.75;;;19.80;99.90;;;;;;5076820;28;20024;-76
2022/08/27 08:02:08;;;;;;;0.40;0.40;;;19.80;99.90;;;;;;5077538;28;20032;-82
2022/08/27 08:04:34;;;;;;;0.10;0.10;;;19.60;99.90;;;;;;5063679;28;20384;-82
2022/08/27 08:07:00;;;;;;;0.10;0.10;;;19.50;99.90;;;;;;5045847;28;20029;-82
2022/08/27 08:09:26;;;;;;;1.20;0.82;;;19.70;99.90;;;;;;5046504;28;20021;-81
2022/08/27 08:11:52;;;;;;;1.15;1.15;;;19.90;99.90;;;;;;5081094;28;20082;-81
2022/08/27 08:14:20;;;;;;;0.10;0.10;;;20.10;99.90;;;;;;5063872;28;20043;-81
2022/08/27 08:16:46;;;;;;;0.77;0.63;;;20.20;99.90;;;;;;5060356;28;20029;-77
2022/08/27 08:19:12;;;;;;;0.10;0.10;;;20.50;99.90;;;;;;5075655;28;20016;-78
2022/08/27 08:21:38;;;;;;;0.00;0.00;;;20.60;99.90;;;;;;5057389;28;20017;-78
2022/08/27 08:24:04;;;;;;;1.52;0.47;;;20.80;99.90;;;;;;5058856;28;20020;-76
2022/08/27 08:26:30;;;;;;;0.98;0.13;;;20.90;99.90;;;;;;5056707;28;20110;-77
2022/08/27 08:28:56;;;;;;;0.10;0.10;;;21.10;99.90;;;;;;5076560;28;20204;-75
2022/08/27 08:31:22;;;;;;;0.77;0.77;;;21.30;99.90;;;;;;5074023;28;20028;-75
2022/08/27 08:33:49;;;;;;;1.25;1.00;;;21.30;99.90;;;;;;5074048;28;20107;-75
2022/08/27 08:36:16;;;;;;;0.10;0.10;;;21.00;99.90;;;;;;5055985;28;20043;-75
2022/08/27 08:38:44;;;;;;;1.83;1.00;;;21.00;99.90;;;;;;5061575;28;20099;-80
2022/08/27 08:41:41;;;;;;;0.05;0.05;;;21.10;99.90;;;;;;5062053;28;20016;-80
2022/08/27 08:44:32;;;;;;;0.28;0.28;;;21.20;99.90;;;;;;5046079;28;20051;-76
2022/08/27 08:47:12;;;;;;;0.30;0.30;;;21.40;99.90;;;;;;5056063;28;20032;-76
2022/08/27 08:49:54;;;;;;;0.90;0.57;;;21.40;99.90;;;;;;5056673;28;20031;-76
2022/08/27 08:52:36;;;;;;;0.32;0.32;;;21.60;99.90;;;;;;5055868;28;20021;-76
2022/08/27 08:55:22;;;;;;;0.00;0.00;;;21.80;99.90;;;;;;5039248;28;20383;-76
2022/08/27 08:58:10;;;;;;;0.95;0.95;;;22.30;99.90;;;;;;5043435;28;20029;-78
2022/08/27 09:00:42;;;;;;;3.75;1.10;;;22.90;99.90;;;;;;5058619;28;20023;-77
2022/08/27 09:03:13;;;;;;;0.08;0.08;;;22.70;99.90;;;;;;5078288;28;20025;-77
2022/08/27 09:05:44;;;;;;;0.13;0.13;;;22.50;99.90;;;;;;5076431;28;20016;-75
2022/08/27 09:08:20;;;;;;;0.10;0.10;;;22.80;99.90;;;;;;5040099;28;20032;-75
2022/08/27 09:11:08;;;;;;;0.22;0.22;;;23.00;99.90;;;;;;5074087;28;20025;-76
2022/08/27 09:13:41;;;;;;;0.35;0.35;;;23.00;99.90;;;;;;5074861;28;20503;-76
2022/08/27 09:16:08;;;;;;;0.10;0.10;;;23.60;99.90;;;;;;5074442;28;20361;-76
2022/08/27 09:18:38;;;;;;;0.20;0.20;;;24.10;99.90;;;;;;5059132;28;20028;-77
2022/08/27 09:21:19;;;;;;;0.00;0.00;;;24.30;99.90;;;;;;5075625;28;20547;-76
2022/08/27 09:23:56;;;;;;;;;;;24.50;99.90;;;;;;5058168;28;20021;-78
2022/08/27 09:26:28;;;;;;;0.10;0.10;;;24.60;99.90;;;;;;5055605;28;19911;-74
2022/08/27 09:29:15;;;;;;;0.28;0.28;;;24.50;99.90;;;;;;5072833;28;20492;-76
2022/08/27 09:31:44;;;;;;;0.20;0.13;;;24.60;99.90;;;;;;5073175;28;20032;-75
2022/08/27 09:34:10;;;;;;;0.30;0.30;;;24.60;99.90;;;;;;5054636;28;20054;-76
2022/08/27 09:36:49;;;;;;;0.00;0.00;;;24.80;99.90;;;;;;5072964;28;20371;-77
2022/08/27 09:39:15;;;;;;;0.25;0.25;;;25.00;99.90;;;;;;5055280;28;20028;-75
2022/08/27 09:41:45;;;;;;;0.32;0.32;;;25.10;98.90;;;;;;5038422;28;20025;-76
2022/08/27 09:44:15;;;;;;;1.70;1.60;;;25.20;98.80;;;;;;5072795;28;20071;-76
2022/08/27 09:46:55;;;;;;;0.10;0.10;;;25.30;98.20;;;;;;5054862;28;20016;-77
2022/08/27 09:49:22;;;;;;;0.10;0.10;;;25.30;96.80;;;;;;5040720;28;20048;-78
2022/08/27 09:51:49;;;;;;;3.15;0.52;;;25.20;97.30;;;;;;5040531;28;20025;-77
2022/08/27 09:54:54;;;;;;;0.63;0.47;;;24.80;97.30;;;;;;5076106;28;20016;-77
2022/08/27 09:57:33;;;;;;;0.00;0.00;;;24.00;98.50;;;;;;4995824;28;20116;-78
2022/08/27 09:59:59;;;;;;;0.13;0.13;;;23.90;99.90;;;;;;5051575;28;20467;-78
2022/08/27 10:02:26;;;;;;;0.00;0.00;;;24.00;99.90;;;;;;5058409;28;20024;-78
2022/08/27 10:04:57;;;;;;;0.00;0.00;;;24.00;99.90;;;;;;5059729;28;20516;-77
2022/08/27 10:07:52;;;;;;;0.38;0.35;;;23.90;99.90;;;;;;5050792;22;20061;-75
2022/08/27 10:10:57;;;;;;;0.05;0.05;;;23.50;99.90;;;;;;5034730;28;20484;-76
2022/08/27 10:13:45;;;;;;;0.00;0.00;;;23.30;99.90;;;;;;5052155;28;20074;-76
2022/08/27 10:16:49;;;;;;;0.57;0.45;;;23.30;99.90;;;;;;5034119;28;20025;-76
2022/08/27 10:19:24;;;;;;;0.10;0.10;;;23.50;99.90;;;;;;5034372;28;20545;-76
2022/08/27 10:22:06;;;;;;;0.08;0.08;;;23.20;99.90;;;;;;5018150;28;20108;-77
2022/08/27 10:25:21;;;;;;;0.40;0.40;;;23.30;99.90;;;;;;5034971;28;20024;-77
2022/08/27 10:28:09;;;;;;;0.85;0.20;;;23.50;99.90;;;;;;4990776;28;20105;-77
2022/08/27 10:30:53;;;;;;;0.15;0.15;;;23.60;99.90;;;;;;5034304;28;20021;-76
2022/08/27 10:33:30;;;;;;;0.00;0.00;;;23.60;99.90;;;;;;5052401;28;20452;-74
2022/08/27 10:36:43;;;;;;;0.00;0.00;;;23.90;99.90;;;;;;5017485;28;20055;-75
2022/08/27 10:39:36;;;;;;;0.40;0.40;;;24.00;99.90;;;;;;5016894;28;20099;-75
2022/08/27 10:42:25;;;;;;;0.00;0.00;;;24.10;99.90;;;;;;5040115;28;20110;-74
2022/08/27 10:45:17;;;;;;;0.00;0.00;;;24.10;99.90;;;;;;5034051;28;20499;-75
2022/08/27 10:48:01;;;;;;;0.00;0.00;;;24.20;99.90;;;;;;5033810;28;20021;-75
2022/08/27 10:50:41;;;;;;;0.20;0.20;;;24.30;99.90;;;;;;5033937;28;20124;-75
2022/08/27 10:53:33;;;;;;;0.00;0.00;;;24.30;99.90;;;;;;5033603;28;20055;-75
2022/08/27 10:56:23;;;;;;;0.00;0.00;;;24.40;99.90;;;;;;5016170;28;20026;-75
2022/08/27 10:58:55;;;;;;;0.00;0.00;;;24.60;99.90;;;;;;5014271;28;20022;-75
2022/08/27 11:01:49;;;;;;;0.08;0.08;;;24.60;99.90;;;;;;5031880;28;20022;-75
2022/08/27 11:04:24;;;;;;;0.20;0.20;;;24.90;98.90;;;;;;5051767;28;20021;-75
2022/08/27 11:06:57;;;;;;;0.10;0.10;;;24.90;98.70;;;;;;5033537;28;20025;-75
2022/08/27 11:09:37;;;;;;;0.70;0.45;;;24.90;97.70;;;;;;5033567;28;20027;-75
2022/08/27 11:12:08;;;;;;;0.00;0.00;;;24.70;98.30;;;;;;5042130;28;20024;-75
2022/08/27 11:14:40;;;;;;;1.42;0.35;;;24.30;99.20;;;;;;5017903;28;20039;-74
2022/08/27 11:17:17;;;;;;;;;;;24.20;98.80;;;;;;5018307;28;20049;-75
2022/08/27 11:20:09;;;;;;;0.63;0.63;;;24.00;98.40;;;;;;5035532;28;19905;-75
2022/08/27 11:22:50;;;;;;;0.10;0.10;;;23.80;98.80;;;;;;5017510;28;20025;-75
2022/08/27 11:25:22;;;;;;;0.10;0.10;;;23.80;99.00;;;;;;5017530;28;20129;-75
2022/08/27 11:27:50;;;;;;;0.10;0.10;;;23.90;99.00;;;;;;5017654;28;20421;-75
2022/08/27 11:30:44;;;;;;;0.00;0.00;;;24.30;98.20;;;;;;5035154;28;20172;-74
2022/08/27 11:33:26;;;;;;;0.45;0.45;;;24.50;96.70;;;;;;5017403;28;20025;-74
2022/08/27 11:36:23;;;;;;;0.28;0.28;;;25.40;94.70;;;;;;5035199;28;20025;-74
2022/08/27 11:38:53;;;;;;;0.00;0.00;;;26.10;92.20;;;;;;5035175;28;20061;-75
2022/08/27 11:41:28;;;;;;;19.17;12.02;;;26.50;90.70;;;;;;5035102;28;20049;-75
2022/08/27 11:43:54;;;;;;;0.00;0.00;;;26.50;89.50;;;;;;5017477;28;20028;-75
2022/08/27 11:46:24;;;;;;;0.00;0.00;;;26.10;90.40;;;;;;5045794;28;20100;-75
2022/08/27 11:49:00;;;;;;;0.00;0.00;;;25.80;91.10;;;;;;5036666;28;20491;-75
2022/08/27 11:51:38;;;;;;;1.00;1.00;;;25.40;91.50;;;;;;5054659;28;20123;-75
2022/08/27 11:54:10;;;;;;;0.00;0.00;;;25.40;91.90;;;;;;5054942;28;20107;-75
2022/08/27 11:56:42;;;;;;;0.03;0.03;;;25.40;92.20;;;;;;5044419;28;20025;-75
2022/08/27 11:59:26;;;;;;;0.13;0.13;;;25.30;93.30;;;;;;5054217;28;20120;-75
2022/08/27 12:01:55;;;;;;;0.00;0.00;;;25.20;93.70;;;;;;5054085;28;20048;-77
2022/08/27 12:04:41;;;;;;;0.00;0.00;;;25.10;93.80;;;;;;5035176;28;20021;-74
2022/08/27 12:07:13;;;;;;;0.00;0.00;;;25.00;93.80;;;;;;5053359;28;20443;-74
2022/08/27 12:09:56;;;;;;;0.00;0.00;;;24.90;93.60;;;;;;5053867;28;20029;-74
2022/08/27 12:12:55;;;;;;;0.47;0.22;;;24.90;93.30;;;;;;5054442;28;20473;-72
2022/08/27 12:15:36;;;;;;;0.00;0.00;;;24.80;93.40;;;;;;5036532;28;20032;-71
2022/08/27 12:18:43;;;;;;;0.00;0.00;;;24.80;93.50;;;;;;5054518;28;20028;-72
2022/08/27 12:21:47;;;;;;;0.00;0.00;;;24.80;93.60;;;;;;5037115;28;20102;-72
2022/08/27 12:24:26;;;;;;;0.03;0.03;;;24.90;93.20;;;;;;5019531;28;20056;-74
2022/08/27 12:27:20;;;;;;;0.00;0.00;;;24.70;93.20;;;;;;5054411;28;20070;-75
2022/08/27 12:30:18;;;;;;;0.00;0.00;;;24.60;93.50;;;;;;5036285;28;20178;-74
2022/08/27 12:32:47;;;;;;;0.30;0.30;;;24.70;93.60;;;;;;5036246;28;20029;-71
2022/08/27 12:35:18;;;;;;;0.35;0.35;;;25.10;93.10;;;;;;5054021;28;20086;-74
2022/08/27 12:37:53;;;;;;;0.00;0.00;;;25.20;92.40;;;;;;5019523;28;20028;-73
2022/08/27 12:40:23;;;;;;;0.00;0.00;;;25.30;93.10;;;;;;5053946;28;20049;-72
2022/08/27 12:42:50;;;;;;;0.35;0.35;;;25.20;93.00;;;;;;5053793;28;20111;-73
2022/08/27 12:45:23;;;;;;;0.90;0.65;;;25.20;93.10;;;;;;5053756;28;20031;-73
2022/08/27 12:47:51;;;;;;;0.00;0.00;;;25.10;93.40;;;;;;5035846;28;20362;-76
2022/08/27 12:50:29;;;;;;;0.95;0.20;;;25.00;94.60;;;;;;5035723;28;20055;-74
2022/08/27 12:53:11;;;;;;;0.10;0.10;;;24.90;94.90;;;;;;5036085;28;20033;-74
2022/08/27 12:55:53;;;;;;;0.00;0.00;;;24.90;94.90;;;;;;5053692;28;20029;-74
2022/08/27 12:58:37;;;;;;;;;;;24.70;94.80;;;;;;5054098;28;20028;-74
2022/08/27 13:01:16;;;;;;;1.20;1.05;;;24.90;94.90;;;;;;5053549;28;19912;-75
2022/08/27 13:03:46;;;;;;;0.20;0.20;;;24.90;94.30;;;;;;5053686;28;20027;-74
2022/08/27 13:06:33;;;;;;;0.10;0.10;;;24.70;94.80;;;;;;5053380;28;20029;-74
2022/08/27 13:09:02;;;;;;;0.00;0.00;;;24.60;95.00;;;;;;5053928;28;20029;-75
2022/08/27 13:11:31;;;;;;;0.38;0.38;;;24.50;95.50;;;;;;5037564;28;20029;-76
2022/08/27 13:14:10;;;;;;;0.00;0.00;;;24.50;95.80;;;;;;5054693;28;20029;-76
2022/08/27 13:16:41;;;;;;;1.38;0.35;;;24.40;95.70;;;;;;5053525;28;20021;-76